• Join FlightAware (Why Join?)
  • Login
  • US Flag GB Flag 
09:03 EDT


 

Airport Tracker/Info


-or-


 

Live Flight TrackerFlight Track Log ✈ SWA472 ✈ 06-May-2013 ✈ KONT - KSMF

Flight Track Log - Related Links

Times and Time Zones

All times are in EDT time to prevent confusion due to time zone crossing. See the SWA472 flight status page for this flight to view local times or setup timezone preferences in your user account.

Time Position Orientation Groundspeed Altitude Reporting Facility
EDT Latitude Longitude Course Direction KTS MPH feet Rate Location/Type
09:12 34.0572 -117.6256 271° West 163 188 38,000  Level Los Angeles Center
09:13 34.0578 -117.6847 271° West 206 237 3,400 -15,420 Descending Los Angeles Center
09:14 34.0622 -117.7600 274° West 215 247 7,000 2,580 Climbing Los Angeles Center
09:16 34.1997 -117.8469 332° Northwest 291 335 11,300 2,280 Climbing Los Angeles Center
09:17 34.2703 -117.9192 320° Northwest 348 400 14,000 3,000 Climbing Los Angeles Center
09:18 34.3275 -118.0400 300° West 349 402 18,100 3,480 Climbing Los Angeles Center
09:19 34.3856 -118.1636 300° West 351 404 21,900 3,300 Climbing Los Angeles Center
09:21 34.5264 -118.3353 315° West 389 448 28,200 2,520 Climbing Los Angeles Center
09:23 34.6744 -118.4440 329° Northwest  Level Estimated
09:23 34.7125 -118.4503 329° Northwest 397 457 32,300  Level Los Angeles Center
09:24 34.8044 -118.5061 334° Northwest 404 465 33,700 1,260 Climbing Los Angeles Center
09:26 34.9472 -118.6129 328° Northwest  Level Estimated
09:27 35.2114 -118.7542 328° Northwest 438 504 38,000  Level Oakland Center
09:29 35.2863 -118.8612 315° West  Level FlightAware Approximate
09:29 35.4283 -118.8881 315° West 439 505 38,000  Level Oakland Center
09:30 35.4967 -118.9308 333° Northwest 442 509 38,000  Level Los Angeles Center
09:32 35.6283 -119.0351 329° Northwest  Level Estimated
09:32 35.7139 -119.0686 329° Northwest 442 509 38,000  Level Los Angeles Center
09:33 35.5977 -119.1053 328° Northwest  Level Estimated
09:34 35.8418 -119.1720 337° Northwest  Level Estimated
09:35 35.9711 -119.2303 337° Northwest 439 505 38,000  Level Oakland Center
09:36 36.0797 -119.2986 333° Northwest 439 505 38,000  Level Oakland Center
09:37 36.1844 -119.3725 330° Northwest 437 503 38,000  Level Oakland Center
09:38 36.2867 -119.4511 328° Northwest 438 504 38,000  Level Oakland Center
09:41 36.6142 -119.7072 328° Northwest 437 503 38,000  Level Oakland Center
09:42 36.7175 -119.7886 328° Northwest 440 506 38,000 -900 Level Oakland Center
09:44 36.9106 -119.8363 313° West  Level FlightAware Approximate
09:44 36.9189 -119.9478 313° West 431 496 35,400  Level Oakland Center
09:45 37.0217 -120.0311 327° Northwest 441 507 32,400 -2,460 Descending Oakland Center
09:46 37.1300 -120.1167 328° Northwest 429 494 30,400 -2,100 Descending Oakland Center
09:48 37.2962 -120.2336 331° Northwest  Level FlightAware Approximate
09:48 37.3667 -120.3000 331° Northwest 407 468 25,400  Level Northern Cal TRACON
09:49 37.4200 -120.3458 326° Northwest 402 463 24,100 -1,260 Descending Oakland Center
09:50 37.5333 -120.4667 320° Northwest 395 455 22,900 -960 Descending Northern Cal TRACON
09:51 37.6333 -120.5500 327° Northwest 383 441 21,900 -1,080 Descending Northern Cal TRACON
09:52 37.7167 -120.6500 317° Northwest 379 436 20,700 -1,020 Descending Northern Cal TRACON
09:53 37.7833 -120.7167 322° Northwest 375 432 19,900 -960 Descending Northern Cal TRACON
09:54 37.8667 -120.7833 328° Northwest 375 432 19,000 -960 Descending Northern Cal TRACON
09:55 37.9192 -120.8444 317° Northwest 371 427 18,300 -1,020 Descending Oakland Center
09:56 37.9972 -120.9247 321° Northwest 364 419 17,200 -1,080 Descending Oakland Center
09:57 38.0739 -121.0039 321° Northwest 356 410 16,200 -1,020 Descending Oakland Center
09:58 38.1392 -121.0972 312° West 352 405 15,200 -1,140 Descending Oakland Center
09:59 38.2000 -121.2000 307° West 350 403 14,100 -1,140 Descending Northern Cal TRACON
10:00 38.2667 -121.3000 310° West 345 397 13,100 -1,020 Descending Northern Cal TRACON
10:01 38.3333 -121.3833 316° Northwest 337 388 12,100 -1,020 Descending Northern Cal TRACON
10:02 38.3833 -121.4667 307° West 334 384 11,100 -1,020 Descending Northern Cal TRACON
10:03 38.4500 -121.5500 316° Northwest 328 377 10,200 -960 Descending Northern Cal TRACON
10:05 38.6044 -121.6744 328° Northwest 289 333 8,100 -960 Descending Oakland Center
10:07 38.7383 -121.7106 348° North 241 277 6,200 -1,260 Descending Oakland Center
10:09 38.8333 -121.7167 357° North 235 270 3,800 -1,440 Descending Northern Cal TRACON
10:09 38.8333 -121.6500 90° East 216 249 2,800 -960 Descending Northern Cal TRACON
10:11 38.7667 -121.6000 150° Southeast 138 159 1,100 -780 Descending Northern Cal TRACON
10:12 38.7333 -121.6000 180° South 120 138 500 -600 Descending Northern Cal TRACON